Time;durP1;ratioP1;P1;durP2;ratioP2;P2;SDS_P1;SDS_P2;PMS_P1;PMS_P2;Temp;Humidity;BMP_temperature;BMP_pressure;BME280_temperature;BME280_humidity;BME280_pressure;Samples;Min_cycle;Max_cycle;Signal;HPM_P1;HPM_P2
2024/02/24 00:02:00;;;;;;;89.57;47.58;;;;;;;4.82;100.00;96240.72;5014287;28;20124;-58
2024/02/24 00:04:25;;;;;;;86.07;30.52;;;;;;;4.98;100.00;96236.31;5015782;28;20025;-62
2024/02/24 00:06:51;;;;;;;82.15;32.63;;;;;;;5.12;100.00;96235.31;5012147;28;20062;-61
2024/02/24 00:09:16;;;;;;;81.30;36.65;;;;;;;4.78;100.00;96241.63;5015387;28;20632;-58
2024/02/24 00:11:42;;;;;;;103.57;28.23;;;;;;;5.05;100.00;96237.94;5014447;28;20544;-60
2024/02/24 00:14:07;;;;;;;116.30;52.83;;;;;;;4.71;100.00;96240.81;5016566;28;20528;-62
2024/02/24 00:16:32;;;;;;;78.18;31.05;;;;;;;4.72;100.00;96242.56;5012309;28;20052;-59
2024/02/24 00:18:59;;;;;;;99.40;31.75;;;;;;;4.81;100.00;96245.03;5013843;28;20563;-61
2024/02/24 00:21:26;;;;;;;76.93;29.15;;;;;;;5.31;100.00;96244.56;4996328;28;20129;-59
2024/02/24 00:23:51;;;;;;;123.25;28.70;;;;;;;5.00;100.00;96241.41;5014399;28;20087;-57
2024/02/24 00:26:16;;;;;;;54.72;22.20;;;;;;;5.44;100.00;96247.00;5015267;28;20311;-58
2024/02/24 00:28:42;;;;;;;96.43;28.17;;;;;;;5.14;100.00;96251.59;5015969;28;20162;-58
2024/02/24 00:31:07;;;;;;;87.13;28.38;;;;;;;5.37;100.00;96248.78;5011930;28;20037;-60
2024/02/24 00:33:32;;;;;;;61.58;22.50;;;;;;;4.93;100.00;96250.94;5015075;28;20025;-59
2024/02/24 00:35:58;;;;;;;82.85;21.45;;;;;;;4.93;100.00;96251.81;5012123;28;20037;-59
2024/02/24 00:38:23;;;;;;;76.45;21.55;;;;;;;5.17;100.00;96249.00;5014881;28;20107;-59
2024/02/24 00:40:48;;;;;;;100.80;27.13;;;;;;;5.32;100.00;96248.88;5012915;28;20076;-59
2024/02/24 00:43:14;;;;;;;69.95;14.80;;;;;;;5.27;100.00;96245.44;5014147;28;20457;-60
2024/02/24 00:45:39;;;;;;;124.20;17.50;;;;;;;5.33;100.00;96244.53;5013868;28;20049;-59
2024/02/24 00:48:05;;;;;;;61.42;15.82;;;;;;;5.23;100.00;96248.09;5018198;28;20104;-59
2024/02/24 00:50:31;;;;;;;59.45;15.73;;;;;;;4.51;100.00;96252.13;5017373;28;20052;-60
2024/02/24 00:52:56;;;;;;;78.18;20.38;;;;;;;5.02;100.00;96250.88;5013962;28;20032;-59
2024/02/24 00:55:22;;;;;;;60.53;25.50;;;;;;;4.36;100.00;96247.97;5016852;28;20036;-60
2024/02/24 00:57:48;;;;;;;101.90;26.08;;;;;;;4.87;100.00;96254.44;5014264;28;20021;-61
2024/02/24 01:00:14;;;;;;;83.55;23.83;;;;;;;4.79;100.00;96246.75;5013689;28;20044;-62
2024/02/24 01:02:39;;;;;;;81.20;20.75;;;;;;;4.45;100.00;96238.47;5015085;28;20026;-60
2024/02/24 01:05:05;;;;;;;50.38;26.23;;;;;;;4.68;100.00;96240.88;5015818;28;20033;-60
2024/02/24 01:07:30;;;;;;;109.30;25.30;;;;;;;4.70;100.00;96236.53;5016416;28;20029;-60
2024/02/24 01:09:56;;;;;;;57.65;22.95;;;;;;;4.61;100.00;96244.34;5014789;28;20124;-60
2024/02/24 01:12:23;;;;;;;62.15;23.48;;;;;;;4.85;100.00;96252.72;5017400;28;20042;-60
2024/02/24 01:14:48;;;;;;;117.75;24.52;;;;;;;4.95;100.00;96246.63;5016488;28;20987;-61
2024/02/24 01:17:14;;;;;;;51.88;15.48;;;;;;;4.60;100.00;96250.38;5016949;28;20041;-62
2024/02/24 01:19:39;;;;;;;90.10;22.10;;;;;;;4.51;100.00;96247.00;5015299;28;20033;-62
2024/02/24 01:22:04;;;;;;;78.15;21.77;;;;;;;4.04;100.00;96254.13;5016058;28;20044;-60
2024/02/24 01:24:30;;;;;;;53.75;16.88;;;;;;;3.85;100.00;96255.94;5016582;28;20148;-62
2024/02/24 01:26:55;;;;;;;69.43;28.02;;;;;;;4.03;100.00;96257.59;5015016;28;20883;-63
2024/02/24 01:29:20;;;;;;;94.13;27.02;;;;;;;4.32;100.00;96255.69;5014809;28;20687;-62
2024/02/24 01:31:45;;;;;;;126.03;30.80;;;;;;;4.36;100.00;96262.53;5011408;28;20041;-61
2024/02/24 01:34:11;;;;;;;54.83;29.17;;;;;;;4.91;100.00;96263.84;5014077;28;20029;-59
2024/02/24 01:36:36;;;;;;;71.22;29.67;;;;;;;5.28;100.00;96270.38;5015361;28;20041;-60
2024/02/24 01:39:02;;;;;;;73.43;30.20;;;;;;;5.46;100.00;96271.06;5015245;28;20076;-63
2024/02/24 01:41:27;;;;;;;60.55;24.33;;;;;;;5.03;100.00;96273.19;5015161;28;20037;-60
2024/02/24 01:43:52;;;;;;;120.68;30.58;;;;;;;4.45;100.00;96272.75;5013455;28;20065;-63
2024/02/24 01:46:18;;;;;;;77.13;33.50;;;;;;;5.31;100.00;96272.91;5014808;28;20037;-59
2024/02/24 01:48:43;;;;;;;93.20;32.20;;;;;;;5.41;100.00;96268.53;5014573;28;20029;-59
2024/02/24 01:51:10;;;;;;;76.85;28.92;;;;;;;4.95;100.00;96275.81;5014038;28;20053;-60
2024/02/24 01:53:36;;;;;;;57.17;25.95;;;;;;;4.10;100.00;96268.69;5016186;28;20065;-59
2024/02/24 01:56:06;;;;;;;88.10;28.27;;;;;;;4.72;100.00;96272.59;5012222;28;20125;-59
2024/02/24 01:58:35;;;;;;;71.50;22.23;;;;;;;3.69;100.00;96268.88;5013525;28;20021;-58
2024/02/24 02:01:01;;;;;;;76.55;31.17;;;;;;;3.54;100.00;96274.06;5012315;28;20513;-60
2024/02/24 02:03:27;;;;;;;93.70;31.67;;;;;;;4.12;100.00;96279.84;5016090;28;20086;-62
2024/02/24 02:05:53;;;;;;;89.32;29.08;;;;;;;4.13;100.00;96273.81;5013807;28;20046;-59
2024/02/24 02:08:18;;;;;;;65.68;29.00;;;;;;;4.40;100.00;96279.66;5016199;28;20018;-59
2024/02/24 02:10:44;;;;;;;132.80;24.13;;;;;;;4.29;100.00;96280.59;5012602;28;20037;-60
2024/02/24 02:13:10;;;;;;;62.58;23.95;;;;;;;4.33;100.00;96281.44;5014599;28;20393;-60
2024/02/24 02:15:36;;;;;;;65.30;22.55;;;;;;;4.22;100.00;96284.06;5014559;28;20495;-61
2024/02/24 02:18:02;;;;;;;103.63;25.70;;;;;;;4.58;100.00;96285.56;5012366;28;20039;-59
2024/02/24 02:20:28;;;;;;;48.30;17.50;;;;;;;4.28;100.00;96288.31;5013033;28;20042;-62
2024/02/24 02:22:53;;;;;;;80.85;18.50;;;;;;;4.12;100.00;96285.00;5012156;28;20485;-60
2024/02/24 02:25:18;;;;;;;63.92;22.73;;;;;;;4.04;100.00;96293.59;5015774;28;20071;-59
2024/02/24 02:27:44;;;;;;;73.97;24.50;;;;;;;3.76;100.00;96293.69;5014267;28;20120;-59
2024/02/24 02:30:09;;;;;;;60.63;29.73;;;;;;;3.92;100.00;96285.94;5016845;28;20056;-61
2024/02/24 02:32:35;;;;;;;105.25;37.80;;;;;;;3.88;100.00;96286.81;5014504;28;20034;-60
2024/02/24 02:35:00;;;;;;;103.07;30.65;;;;;;;4.61;100.00;96276.09;5012605;28;20260;-61
2024/02/24 02:37:25;;;;;;;81.47;33.67;;;;;;;4.39;100.00;96278.81;5013904;28;20050;-59
2024/02/24 02:39:51;;;;;;;124.93;33.17;;;;;;;4.59;100.00;96276.97;5011766;28;20352;-60
2024/02/24 02:42:16;;;;;;;73.72;30.83;;;;;;;4.59;100.00;96287.25;5013793;28;20034;-61
2024/02/24 02:44:41;;;;;;;66.88;23.77;;;;;;;4.32;100.00;96281.44;5014715;28;20168;-60
2024/02/24 02:47:06;;;;;;;88.10;27.77;;;;;;;3.81;100.00;96287.69;5010783;28;20045;-59
2024/02/24 02:49:32;;;;;;;66.43;31.33;;;;;;;4.05;100.00;96279.03;5012418;28;20056;-60
2024/02/24 02:51:57;;;;;;;152.25;37.53;;;;;;;4.26;100.00;96280.63;5011303;28;20057;-61
2024/02/24 02:54:22;;;;;;;85.57;26.52;;;;;;;4.42;100.00;96283.09;5012957;28;20029;-63
2024/02/24 02:56:48;;;;;;;104.28;28.33;;;;;;;3.82;100.00;96292.81;5012801;28;20439;-62
2024/02/24 02:59:13;;;;;;;61.42;27.33;;;;;;;4.36;100.00;96291.72;5017828;28;20033;-60
2024/02/24 03:01:38;;;;;;;77.57;27.25;;;;;;;4.63;100.00;96294.09;5017142;28;20059;-60
2024/02/24 03:04:04;;;;;;;47.45;25.67;;;;;;;4.35;100.00;96300.31;5017498;28;20141;-61
2024/02/24 03:06:32;;;;;;;69.85;23.55;;;;;;;4.19;100.00;96290.97;5018242;28;20045;-60
2024/02/24 03:08:57;;;;;;;125.63;30.73;;;;;;;4.21;100.00;96296.94;5016941;28;20036;-61
2024/02/24 03:11:23;;;;;;;52.08;16.33;;;;;;;4.35;100.00;96302.88;5017736;28;20038;-59
2024/02/24 03:13:49;;;;;;;95.88;22.58;;;;;;;4.32;100.00;96302.03;5014797;28;20033;-60
2024/02/24 03:16:18;;;;;;;70.43;24.90;;;;;;;4.25;100.00;96306.34;5016304;28;20478;-60
2024/02/24 03:18:43;;;;;;;52.08;24.70;;;;;;;3.91;100.00;96303.06;5017289;28;20409;-59
2024/02/24 03:21:08;;;;;;;93.32;28.20;;;;;;;4.01;100.00;96311.59;5013061;28;20052;-60
2024/02/24 03:23:34;;;;;;;72.53;22.85;;;;;;;4.17;100.00;96309.81;5015622;28;20121;-60
2024/02/24 03:25:59;;;;;;;126.78;28.17;;;;;;;4.12;100.00;96305.56;5012903;28;20152;-61
2024/02/24 03:28:24;;;;;;;76.53;22.42;;;;;;;3.87;100.00;96303.09;5014628;28;20152;-59
2024/02/24 03:30:50;;;;;;;112.53;25.65;;;;;;;4.22;100.00;96303.78;5013413;28;20425;-62
2024/02/24 03:33:15;;;;;;;61.42;22.08;;;;;;;3.87;100.00;96316.78;5016683;28;20032;-61
2024/02/24 03:35:40;;;;;;;93.50;24.63;;;;;;;3.45;100.00;96311.78;5016667;28;20092;-61
2024/02/24 03:38:06;;;;;;;63.88;20.25;;;;;;;3.76;100.00;96314.25;5016643;28;20040;-60
2024/02/24 03:40:31;;;;;;;70.93;25.17;;;;;;;4.22;100.00;96316.66;5015819;28;20041;-60
2024/02/24 03:42:58;;;;;;;132.38;28.48;;;;;;;3.91;100.00;96318.50;5015980;28;20052;-62
2024/02/24 03:45:24;;;;;;;81.32;24.83;;;;;;;4.17;100.00;96314.13;5016742;28;20103;-61
2024/02/24 03:47:49;;;;;;;91.68;23.58;;;;;;;3.89;100.00;96309.06;5014936;28;20047;-59
2024/02/24 03:50:14;;;;;;;85.82;22.05;;;;;;;3.96;100.00;96309.91;5013896;28;20030;-59
2024/02/24 03:52:40;;;;;;;64.78;19.15;;;;;;;2.91;100.00;96317.84;5014134;28;20144;-61
2024/02/24 03:55:05;;;;;;;108.72;27.33;;;;;;;3.60;100.00;96323.75;5015697;28;20744;-60
2024/02/24 03:57:31;;;;;;;80.25;23.80;;;;;;;4.01;100.00;96327.03;5017404;28;20029;-59
2024/02/24 03:59:56;;;;;;;106.35;26.25;;;;;;;4.06;100.00;96327.03;5015971;28;20515;-59
2024/02/24 04:02:21;;;;;;;57.95;17.92;;;;;;;4.06;100.00;96326.16;5015557;28;20027;-61
2024/02/24 04:04:47;;;;;;;96.28;24.98;;;;;;;3.78;100.00;96332.25;5016438;28;20059;-60
2024/02/24 04:07:13;;;;;;;70.95;17.30;;;;;;;2.90;100.00;96329.00;5012521;28;20129;-59
2024/02/24 04:09:38;;;;;;;106.22;30.02;;;;;;;2.96;100.00;96326.41;5013425;28;20079;-59
2024/02/24 04:12:04;;;;;;;129.10;32.10;;;;;;;3.65;100.00;96322.00;5011516;28;20504;-60
2024/02/24 04:14:29;;;;;;;64.50;23.70;;;;;;;2.62;100.00;96328.94;5017200;28;20535;-60
2024/02/24 04:16:55;;;;;;;113.00;32.08;;;;;;;3.32;100.00;96338.38;5014231;28;20075;-59
2024/02/24 04:19:20;;;;;;;72.40;21.63;;;;;;;3.22;100.00;96334.94;5015704;28;20075;-58
2024/02/24 04:21:46;;;;;;;54.90;25.10;;;;;;;3.03;100.00;96344.38;5016932;28;20045;-60
2024/02/24 04:24:11;;;;;;;74.60;18.77;;;;;;;2.75;100.00;96347.81;5015339;28;20053;-62
2024/02/24 04:26:36;;;;;;;92.05;28.08;;;;;;;2.70;100.00;96346.91;5013277;28;20586;-59
2024/02/24 04:29:02;;;;;;;113.25;29.52;;;;;;;2.67;100.00;96349.50;5012674;28;20446;-60
2024/02/24 04:31:28;;;;;;;93.90;31.58;;;;;;;3.35;100.00;96358.94;5012432;28;20099;-59
2024/02/24 04:33:53;;;;;;;127.68;31.70;;;;;;;3.53;100.00;96349.47;5013753;28;20083;-61
2024/02/24 04:36:18;;;;;;;64.72;26.13;;;;;;;3.59;100.00;96345.19;5016624;28;20033;-60
2024/02/24 04:38:44;;;;;;;77.60;21.73;;;;;;;3.57;100.00;96352.06;5016793;28;20085;-60
2024/02/24 04:41:09;;;;;;;59.83;23.00;;;;;;;3.39;100.00;96343.47;5013756;28;20489;-59
2024/02/24 04:43:35;;;;;;;48.90;24.05;;;;;;;3.72;100.00;96350.28;5018145;28;20025;-60
2024/02/24 04:46:00;;;;;;;149.77;28.10;;;;;;;3.64;100.00;96348.59;5013654;28;20072;-60
2024/02/24 04:48:25;;;;;;;61.47;23.45;;;;;;;3.74;100.00;96344.28;5016954;28;20425;-62
2024/02/24 04:50:51;;;;;;;81.18;20.92;;;;;;;4.02;100.00;96353.63;5011104;28;20668;-61
2024/02/24 04:53:16;;;;;;;73.50;22.63;;;;;;;3.72;100.00;96351.16;5015357;28;20026;-63
2024/02/24 04:55:41;;;;;;;81.65;24.25;;;;;;;3.28;100.00;96360.66;5016489;28;20049;-64
2024/02/24 04:58:07;;;;;;;91.03;26.48;;;;;;;3.30;100.00;96366.63;5015627;28;20127;-64
2024/02/24 05:00:32;;;;;;;96.10;27.45;;;;;;;2.87;100.00;96364.94;5014178;28;20033;-64
2024/02/24 05:02:57;;;;;;;134.05;27.45;;;;;;;3.25;100.00;96366.66;5013075;28;20448;-61
2024/02/24 05:05:22;;;;;;;91.95;39.15;;;;;;;2.17;100.00;96369.88;5014043;28;20079;-63
2024/02/24 05:07:48;;;;;;;79.85;27.45;;;;;;;2.97;100.00;96369.19;5015174;28;20029;-60
2024/02/24 05:10:13;;;;;;;72.97;27.70;;;;;;;3.59;100.00;96376.03;5012877;28;20271;-63
2024/02/24 05:12:47;;;;;;;62.50;18.75;;;;;;;3.57;100.00;96380.34;5013772;28;20102;-60
2024/02/24 05:15:12;;;;;;;102.15;26.25;;;;;;;3.61;100.00;96381.16;5012201;28;20082;-61
2024/02/24 05:17:38;;;;;;;80.82;24.17;;;;;;;3.63;100.00;96374.28;5014972;28;20045;-62
2024/02/24 05:20:03;;;;;;;112.45;25.50;;;;;;;3.67;100.00;96370.88;5012581;28;20029;-62
2024/02/24 05:22:30;;;;;;;81.70;22.60;;;;;;;3.35;100.00;96387.19;5014854;28;20326;-63
2024/02/24 05:24:55;;;;;;;84.13;24.25;;;;;;;3.42;100.00;96398.34;5015102;28;20057;-64
2024/02/24 05:27:21;;;;;;;71.93;27.38;;;;;;;2.85;100.00;96385.47;5016584;28;20144;-60
2024/02/24 05:29:46;;;;;;;128.52;30.90;;;;;;;2.21;100.00;96395.56;5015407;28;20029;-59
2024/02/24 05:32:14;;;;;;;57.17;21.05;;;;;;;2.42;100.00;96406.75;5014957;28;20041;-60
2024/02/24 05:34:39;;;;;;;63.28;26.70;;;;;;;3.08;100.00;96399.19;5013924;28;20665;-62
2024/02/24 05:37:04;;;;;;;102.57;24.02;;;;;;;2.86;100.00;96394.03;5012415;28;20349;-62
2024/02/24 05:39:30;;;;;;;69.20;28.88;;;;;;;3.05;100.00;96399.19;5015531;28;20071;-60
2024/02/24 05:41:56;;;;;;;103.18;25.85;;;;;;;3.06;100.00;96400.88;5011655;28;20488;-59
2024/02/24 05:44:21;;;;;;;74.75;21.23;;;;;;;2.63;100.00;96397.38;5014174;28;20490;-60
2024/02/24 05:46:47;;;;;;;70.13;25.40;;;;;;;3.07;100.00;96403.47;5014237;28;20040;-60
2024/02/24 05:49:12;;;;;;;92.90;25.00;;;;;;;3.10;100.00;96410.31;5014046;28;20077;-59
2024/02/24 05:51:39;;;;;;;77.90;26.25;;;;;;;3.16;100.00;96412.91;5013861;28;20041;-61
2024/02/24 05:54:04;;;;;;;87.25;21.70;;;;;;;3.42;100.00;96424.91;5014677;28;20014;-58
2024/02/24 05:56:30;;;;;;;105.57;26.73;;;;;;;3.16;100.00;96430.88;5014151;28;20041;-59
2024/02/24 05:58:55;;;;;;;100.60;22.42;;;;;;;3.11;100.00;96438.56;5015493;28;20033;-58
2024/02/24 06:01:20;;;;;;;75.22;17.45;;;;;;;2.47;100.00;96451.25;5013647;28;20429;-58
2024/02/24 06:03:46;;;;;;;104.43;25.75;;;;;;;2.92;100.00;96445.38;5014321;28;20028;-59
2024/02/24 06:06:11;;;;;;;95.75;22.35;;;;;;;2.76;100.00;96451.34;5013660;28;20049;-61
2024/02/24 06:08:36;;;;;;;56.97;26.27;;;;;;;2.37;100.00;96449.50;5014930;28;20429;-58
2024/02/24 06:11:02;;;;;;;123.75;24.88;;;;;;;2.98;100.00;96450.53;5012936;28;20333;-58
2024/02/24 06:13:27;;;;;;;78.10;23.65;;;;;;;3.20;100.00;96450.56;5016509;28;20124;-59
2024/02/24 06:15:52;;;;;;;103.93;26.95;;;;;;;2.75;100.00;96452.19;5014989;28;20041;-60
2024/02/24 06:18:19;;;;;;;107.78;29.25;;;;;;;3.27;100.00;96445.44;5014792;28;20033;-59
2024/02/24 06:20:44;;;;;;;80.15;24.20;;;;;;;3.55;100.00;96440.28;5014625;28;20045;-61
2024/02/24 06:23:10;;;;;;;103.25;27.60;;;;;;;3.95;100.00;96442.84;5014697;28;20566;-59
2024/02/24 06:25:35;;;;;;;119.47;30.48;;;;;;;3.27;100.00;96446.31;5014213;28;20077;-59
2024/02/24 06:28:01;;;;;;;105.40;23.33;;;;;;;3.74;100.00;96449.72;5013340;28;20419;-61
2024/02/24 06:30:26;;;;;;;89.30;29.70;;;;;;;4.06;100.00;96455.66;5013899;28;20025;-58
2024/02/24 06:32:52;;;;;;;174.45;96.15;;;;;;;3.76;100.00;96445.41;5016488;28;20037;-58
2024/02/24 06:35:17;;;;;;;89.53;33.50;;;;;;;3.90;100.00;96447.13;5017037;28;20034;-59
2024/02/24 06:37:42;;;;;;;68.22;10.48;;;;;;;5.36;100.00;96455.91;5018404;28;20025;-60
2024/02/24 06:40:08;;;;;;;136.20;12.35;;;;;;;7.23;100.00;96455.63;5016916;28;20032;-59
2024/02/24 06:42:33;;;;;;;67.90;8.77;;;;;;;7.83;100.00;96464.19;5019131;28;20022;-58
2024/02/24 06:44:59;;;;;;;77.35;25.05;;;;;;;6.78;100.00;96488.13;5019563;28;20025;-59
2024/02/24 06:47:24;;;;;;;89.82;42.65;;;;;;;5.29;100.00;96488.63;5019167;28;20037;-58
2024/02/24 06:49:49;;;;;;;91.75;27.75;;;;;;;4.74;100.00;96484.59;5020202;28;20188;-60
2024/02/24 06:52:15;;;;;;;54.17;15.68;;;;;;;5.28;100.00;96504.97;5017749;28;20037;-59
2024/02/24 06:54:40;;;;;;;92.03;26.58;;;;;;;6.46;100.00;96503.13;5018966;28;20065;-59
2024/02/24 06:57:06;;;;;;;73.32;31.45;;;;;;;6.39;100.00;96509.25;5016482;28;20045;-59
2024/02/24 06:59:32;;;;;;;63.85;12.50;;;;;;;7.28;100.00;96510.75;5018515;28;20797;-58
2024/02/24 07:01:57;;;;;;;104.57;28.13;;;;;;;6.56;100.00;96523.66;5017134;28;20575;-58
2024/02/24 07:04:22;;;;;;;86.63;25.10;;;;;;;5.89;100.00;96529.44;5018618;28;20497;-59
2024/02/24 07:06:47;;;;;;;84.57;41.83;;;;;;;5.26;100.00;96542.75;5018331;28;20045;-58
2024/02/24 07:09:13;;;;;;;90.20;35.03;;;;;;;5.20;100.00;96553.13;5017779;28;20468;-59
2024/02/24 07:11:38;;;;;;;68.80;25.83;;;;;;;5.38;100.00;96551.31;5018202;28;20115;-58
2024/02/24 07:14:03;;;;;;;101.78;31.48;;;;;;;5.77;100.00;96564.81;5015387;28;20610;-59
2024/02/24 07:16:29;;;;;;;87.45;30.85;;;;;;;6.48;100.00;96570.25;5016262;28;20544;-59
2024/02/24 07:18:54;;;;;;;133.60;111.85;;;;;;;6.56;100.00;96575.34;5017854;28;20037;-58
2024/02/24 07:21:19;;;;;;;75.35;32.63;;;;;;;6.67;100.00;96580.38;5016946;28;20041;-59
2024/02/24 07:23:47;;;;;;;73.47;33.78;;;;;;;6.67;100.00;96577.81;5020541;28;20039;-58
2024/02/24 07:26:12;;;;;;;103.28;37.13;;;;;;;6.19;100.00;96579.97;5017593;28;20033;-60
2024/02/24 07:28:37;;;;;;;81.35;36.95;;;;;;;6.33;100.00;96591.91;5020032;28;20095;-60
2024/02/24 07:31:03;;;;;;;103.75;61.20;;;;;;;7.03;100.00;96592.09;5020020;28;20095;-58
2024/02/24 07:33:28;;;;;;;100.25;46.53;;;;;;;6.87;100.00;96586.22;5018159;28;20037;-58
2024/02/24 07:35:54;;;;;;;129.38;42.67;;;;;;;6.68;100.00;96597.63;5016517;28;20085;-60
2024/02/24 07:38:19;;;;;;;81.03;42.72;;;;;;;6.99;100.00;96600.75;5016726;28;20017;-61
2024/02/24 07:40:45;;;;;;;88.65;40.83;;;;;;;7.33;100.00;96606.34;5016526;28;20511;-60
2024/02/24 07:43:10;;;;;;;121.60;28.85;;;;;;;7.16;100.00;96615.16;5014447;28;20485;-60
2024/02/24 07:45:35;;;;;;;80.75;45.17;;;;;;;7.32;100.00;96623.63;5016819;28;20045;-60
2024/02/24 07:48:01;;;;;;;117.50;58.50;;;;;;;7.93;100.00;96627.97;5015907;28;20041;-59
2024/02/24 07:50:27;;;;;;;123.97;62.83;;;;;;;7.99;100.00;96629.63;5015883;28;20389;-59
2024/02/24 07:52:52;;;;;;;116.97;69.88;;;;;;;8.05;100.00;96629.50;5015691;28;20441;-58
2024/02/24 07:55:18;;;;;;;92.55;62.65;;;;;;;8.44;100.00;96622.00;5017475;28;20033;-59
2024/02/24 07:57:44;;;;;;;110.88;53.72;;;;;;;9.90;100.00;96625.25;5015932;28;20175;-59
2024/02/24 08:00:09;;;;;;;106.75;51.22;;;;;;;9.78;100.00;96631.59;5016139;28;20119;-59
2024/02/24 08:02:36;;;;;;;106.28;80.40;;;;;;;10.33;100.00;96636.41;5016124;28;20022;-59
2024/02/24 08:05:02;;;;;;;170.57;109.78;;;;;;;10.82;100.00;96641.28;5016549;28;20036;-59
2024/02/24 08:07:28;;;;;;;81.55;44.10;;;;;;;12.06;100.00;96647.38;5007353;28;20110;-58
2024/02/24 08:09:54;;;;;;;75.80;25.45;;;;;;;11.71;100.00;96633.63;5016501;28;20059;-57
2024/02/24 08:12:19;;;;;;;184.30;144.32;;;;;;;11.43;100.00;96631.84;5014295;28;20308;-59
2024/02/24 08:14:45;;;;;;;54.83;20.85;;;;;;;13.20;100.00;96627.13;5016886;28;20033;-59
2024/02/24 08:17:11;;;;;;;80.13;19.98;;;;;;;12.36;100.00;96596.94;5014830;28;20271;-60
2024/02/24 08:19:36;;;;;;;106.15;31.55;;;;;;;13.95;100.00;96577.38;5014936;28;20064;-60
2024/02/24 08:22:01;;;;;;;86.55;36.92;;;;;;;14.26;100.00;96578.75;5015350;28;20047;-60
2024/02/24 08:24:27;;;;;;;61.08;12.30;;;;;;;12.16;100.00;96579.31;5016806;28;20588;-61
2024/02/24 08:26:52;;;;;;;81.38;12.38;;;;;;;11.15;100.00;96590.97;5015233;28;20594;-59
2024/02/24 08:29:17;;;;;;;64.45;11.82;;;;;;;11.35;100.00;96589.56;5016352;28;20672;-61
2024/02/24 08:31:43;;;;;;;59.28;11.27;;;;;;;10.72;100.00;96587.81;5014769;28;20068;-58
2024/02/24 08:34:09;;;;;;;97.88;15.20;;;;;;;10.23;100.00;96588.13;5014435;28;20025;-58
2024/02/24 08:36:35;;;;;;;46.72;11.38;;;;;;;11.06;100.00;96600.75;5013606;28;20150;-58
2024/02/24 08:39:01;;;;;;;68.57;11.55;;;;;;;11.45;100.00;96607.47;5014078;28;20476;-59
2024/02/24 08:41:27;;;;;;;72.13;12.20;;;;;;;10.52;100.00;96613.44;5014374;28;20318;-59
2024/02/24 08:43:52;;;;;;;52.95;11.50;;;;;;;10.63;100.00;96610.56;5016077;28;20500;-58
2024/02/24 08:46:21;;;;;;;89.70;14.40;;;;;;;10.17;100.00;96625.50;5013060;28;20037;-59
2024/02/24 08:48:46;;;;;;;54.40;13.18;;;;;;;9.94;100.00;96632.09;5015210;28;20867;-60
2024/02/24 08:51:11;;;;;;;73.30;11.05;;;;;;;10.13;100.00;96636.84;5013016;28;20111;-59
2024/02/24 08:53:37;;;;;;;73.88;16.83;;;;;;;9.89;100.00;96640.00;5012749;28;20037;-58
2024/02/24 08:56:02;;;;;;;73.45;13.20;;;;;;;10.95;100.00;96634.00;5013624;28;20048;-59
2024/02/24 08:58:28;;;;;;;50.75;11.10;;;;;;;10.49;100.00;96634.31;5014845;28;20029;-59
2024/02/24 09:00:56;;;;;;;78.80;11.60;;;;;;;11.00;100.00;96641.69;5013562;28;20045;-61
2024/02/24 09:03:21;;;;;;;56.58;14.10;;;;;;;11.48;100.00;96639.50;5014728;28;20766;-59
2024/02/24 09:05:46;;;;;;;70.22;17.70;;;;;;;10.52;100.00;96643.78;5014026;28;20497;-65
2024/02/24 09:08:12;;;;;;;109.85;33.97;;;;;;;10.28;100.00;96649.50;5013094;28;20034;-60
2024/02/24 09:10:37;;;;;;;54.20;9.30;;;;;;;10.51;100.00;96671.50;5014918;28;20041;-60
2024/02/24 09:13:02;;;;;;;62.08;11.82;;;;;;;10.23;100.00;96674.72;5015095;28;20065;-60
2024/02/24 09:15:28;;;;;;;86.40;13.63;;;;;;;9.53;100.00;96681.41;5013888;28;20129;-60
2024/02/24 09:17:54;;;;;;;72.53;10.77;;;;;;;9.87;100.00;96683.31;5013992;28;20086;-61
2024/02/24 09:20:19;;;;;;;66.55;10.82;;;;;;;9.73;100.00;96683.59;5012724;28;20031;-60
2024/02/24 09:22:45;;;;;;;78.82;11.68;;;;;;;9.72;100.00;96692.28;5014385;28;20146;-59
2024/02/24 09:25:14;;;;;;;83.85;11.82;;;;;;;9.77;100.00;96710.38;5013017;28;20059;-60
2024/02/24 09:27:39;;;;;;;65.13;10.63;;;;;;;9.19;100.00;96711.47;5014005;28;20379;-59
2024/02/24 09:30:05;;;;;;;92.80;12.88;;;;;;;9.55;100.00;96720.31;5011534;28;20229;-61
2024/02/24 09:32:31;;;;;;;71.97;20.17;;;;;;;9.73;100.00;96722.53;5013235;28;20046;-59
2024/02/24 09:34:56;;;;;;;79.75;11.73;;;;;;;9.32;100.00;96725.06;5014462;28;20036;-61
2024/02/24 09:37:21;;;;;;;89.22;11.35;;;;;;;9.38;100.00;96724.09;5012375;28;20033;-59
2024/02/24 09:39:47;;;;;;;83.65;14.15;;;;;;;9.40;100.00;96732.72;5012738;28;20033;-60
2024/02/24 09:42:12;;;;;;;71.63;11.43;;;;;;;9.45;100.00;96730.88;5012814;28;20037;-60
2024/02/24 09:44:38;;;;;;;92.43;42.20;;;;;;;9.23;100.00;96748.59;5014362;28;20033;-62
2024/02/24 09:47:04;;;;;;;68.30;15.43;;;;;;;9.58;100.00;96746.22;5012726;28;20033;-58
2024/02/24 09:49:30;;;;;;;93.75;53.92;;;;;;;9.75;100.00;96749.34;5014148;28;20444;-60
2024/02/24 09:51:57;;;;;;;96.47;28.77;;;;;;;9.05;100.00;96771.38;5012621;28;20533;-58
2024/02/24 09:54:22;;;;;;;90.47;23.20;;;;;;;8.53;100.00;96765.25;5014237;28;20032;-58
2024/02/24 09:56:52;;;;;;;101.88;60.30;;;;;;;8.36;100.00;96766.38;5013178;28;20033;-58
2024/02/24 09:59:20;;;;;;;247.18;151.18;;;;;;;8.39;100.00;96774.06;5013038;28;20049;-58
2024/02/24 10:01:48;;;;;;;110.50;65.05;;;;;;;8.24;100.00;96776.88;5012699;28;20041;-59
2024/02/24 10:04:14;;;;;;;87.78;18.50;;;;;;;8.31;100.00;96775.91;4997176;28;20039;-59
2024/02/24 10:06:43;;;;;;;134.02;45.55;;;;;;;8.57;100.00;96777.31;5003768;28;20041;-62
2024/02/24 10:09:08;;;;;;;195.48;151.48;;;;;;;9.07;100.00;96781.72;5004194;28;20021;-60
2024/02/24 10:11:35;;;;;;;90.57;21.85;;;;;;;8.50;100.00;96775.66;5006346;28;20041;-58
2024/02/24 10:14:01;;;;;;;78.43;13.18;;;;;;;8.93;100.00;96775.03;5008085;28;20064;-58
2024/02/24 10:16:27;;;;;;;82.72;15.50;;;;;;;8.71;100.00;96762.41;5010277;28;20120;-57
2024/02/24 10:18:52;;;;;;;104.28;39.80;;;;;;;9.54;100.00;96750.59;5009879;28;20422;-59
2024/02/24 10:21:17;;;;;;;116.55;13.75;;;;;;;10.18;100.00;96756.25;5008524;28;20025;-59
2024/02/24 10:23:42;;;;;;;78.90;15.93;;;;;;;12.76;100.00;96748.63;5011683;28;20122;-60
2024/02/24 10:26:08;;;;;;;95.35;13.88;;;;;;;14.02;100.00;96738.25;5007826;28;20140;-60
2024/02/24 10:28:35;;;;;;;75.88;9.95;;;;;;;16.76;100.00;96737.22;5010175;28;20087;-60
2024/02/24 10:31:01;;;;;;;73.43;9.63;;;;;;;15.82;100.00;96734.53;5007892;28;20086;-60
2024/02/24 10:33:29;;;;;;;73.75;9.10;;;;;;;16.23;91.34;96736.22;5008009;28;20426;-60
2024/02/24 10:35:55;;;;;;;76.30;15.15;;;;;;;16.72;71.60;96732.19;5007960;28;20447;-59
2024/02/24 10:38:21;;;;;;;84.25;9.18;;;;;;;16.63;83.86;96723.00;5010182;28;20022;-57
2024/02/24 10:40:47;;;;;;;83.05;10.43;;;;;;;16.33;74.22;96710.41;5009958;28;20050;-60
2024/02/24 10:43:14;;;;;;;78.82;8.45;;;;;;;16.03;75.45;96709.13;5009313;28;20029;-59
2024/02/24 10:45:40;;;;;;;66.60;11.75;;;;;;;14.36;99.51;96708.22;5010455;28;20342;-59
2024/02/24 10:48:06;;;;;;;98.18;9.95;;;;;;;13.23;100.00;96713.16;5009646;28;20022;-59
2024/02/24 10:50:31;;;;;;;76.50;8.98;;;;;;;15.52;100.00;96693.03;5008103;28;20404;-60
2024/02/24 10:52:59;;;;;;;74.22;8.65;;;;;;;18.00;72.79;96696.84;5010787;28;20512;-62
2024/02/24 10:55:27;;;;;;;95.45;10.05;;;;;;;17.25;67.20;96701.56;5008471;28;20029;-62
2024/02/24 10:57:54;;;;;;;70.20;25.23;;;;;;;15.77;76.91;96702.44;5010388;28;20055;-59
2024/02/24 11:00:31;;;;;;;92.47;13.15;;;;;;;15.81;73.07;96710.06;5008138;28;20540;-62
2024/02/24 11:02:59;;;;;;;72.88;8.55;;;;;;;16.45;75.56;96707.22;5008802;28;20030;-61
2024/02/24 11:05:27;;;;;;;109.70;63.10;;;;;;;15.79;61.63;96711.94;5007731;28;20037;-60
2024/02/24 11:07:52;;;;;;;74.00;9.77;;;;;;;16.60;68.78;96715.25;5009089;28;20024;-60